Marshfield, WI

12:44 AM CDT on August 31, 2015 (GMT -0500)
APRSWXNET | | Change Station
CLOSE
Current Station
Personal Weather Station
Location: Hewitt, WI
Elevation: 1220 ft
Nearby Weather Stations

Elev 1220 ft 44.64 °N, 90.10 °W | Updated 21 minutes ago

Fog
Fog
63 °F
Feels Like 63 °F
N
0
Wind Variable Wind from South
Gusts 0.0 mph

Today
High -- | Low -- °F
--% Chance of Precip.
Yesterday
High -- | Low -- °F
Precip. -- in
6:21 AM 7:39 PM
Full, 97% visible
Pressure 29.99 in
Visibility 0.2 miles
Clouds
Dew Point 59 °F
Humidity 88%
Rainfall in
Snow Depth Not available.
UV Not available.
Pollen 10.00 out of 12
Air Quality Not available.
Flu Activity Not available.
METAR KMFI 310454Z AUTO 22004KT 1/4SM FG VV004 17/15 A3000 RMK AO2 SLP156 T01670150
Pressure 29.99 in
Visibility 0.2 miles
Clouds
Dew Point 59 °F
Humidity 88%
Rainfall in
Snow Depth Not available.
UV Not available.
Pollen 10.00 out of 12
Air Quality Not available.
Flu Activity Not available.
METAR KMFI 310454Z AUTO 22004KT 1/4SM FG VV004 17/15 A3000 RMK AO2 SLP156 T01670150

10-Day Weather Forecast

×

Almanac

Astronomy

Aug. 31, 2015 Rise Set
Actual Time
Civil Twilight
Nautical Twilight
Astronomical Twilight
Moon
Length of Visible Light
Length of Day
Tomorrow will be .
, % of the Moon is Illuminated

Today's Extremes

State Highs State Lows

Community

WunderPhotos

Upload Photos

1,851,215 photos uploaded!

WunderBlogs® & News

Nearby

Air Quality

  Air Quality AQ Index Pollutant
Not available.

Snow Depth

Station Depth Elevation

Earthquake Activity

City Distance Mag. Time & Date
Minimum magnitude displayed is 2.5.

Coastal Water Temperatures

Place Temperature

Stations

Nearby Weather Stations

Station Location Temp. Windchill Dew Point Humidity Wind Precip. Elev Updated Type